This is the latest recevied weather packets stored in our database for station/object IZ3ZOD-13. If no packets are shown the sender has not sent any weather packets the latest 10 day(s).
| Time | Temp. | Humidity | Pressure | Rain* | Wind** | Luminosity | Snow |
|---|---|---|---|---|---|---|---|
| 1777904164 | 25° C | 44% | 1015.6 hPa | 0 mm | - | - | - |
| 1777902243 | 26.67° C | 44% | 1015.9 hPa | 0 mm | - | - | - |
| 1777901763 | 26.11° C | 45% | 1015.9 hPa | 0 mm | - | - | - |
| 1777901523 | 26.67° C | 45% | 1015.9 hPa | 0 mm | - | - | - |
| 1777901043 | 26.67° C | 38% | 1016.1 hPa | 0 mm | - | - | - |
| 1777898884 | 26.67° C | 38% | 1016.3 hPa | 0 mm | - | - | - |
| 1777897443 | 26.11° C | 41% | 1016.6 hPa | 0 mm | - | - | - |
| 1777889283 | 25° C | 48% | 1017.8 hPa | 0 mm | - | - | - |
| 1777886644 | 23.89° C | 49% | 1017.9 hPa | 0 mm | - | - | - |
| 1777885684 | 23.89° C | 52% | 1018 hPa | 0 mm | - | - | - |
| 1777882564 | 21.11° C | 61% | 1018 hPa | 0 mm | - | - | - |
| 1777881844 | 21.11° C | 63% | 1017.8 hPa | 0 mm | - | - | - |
| 1777881123 | 21.11° C | 62% | 1017.9 hPa | 0 mm | - | - | - |
| 1777880403 | 21.11° C | 62% | 1017.9 hPa | 0 mm | - | - | - |
| 1777878004 | 20.56° C | 66% | 1017.6 hPa | 0 mm | - | - | - |
| 1777874403 | 17.78° C | 68% | 1017.3 hPa | 0 mm | - | - | - |
| 1777872374 | 15.56° C | 74% | 1016.9 hPa | 0 mm | - | - | - |
| 1777869972 | 13.89° C | 81% | 1016.7 hPa | 0 mm | - | - | - |
| 1777869364 | 13.33° C | 82% | 1016.7 hPa | 0 mm | - | - | - |
| 1777869124 | 13.33° C | 83% | 1016.6 hPa | 0 mm | - | - | - |
| 1777867095 | 12.22° C | 89% | 1016.4 hPa | 0 mm | - | - | - |
| 1777866614 | 12.22° C | 88% | 1016.3 hPa | 0 mm | - | - | - |
| 1777865656 | 12.78° C | 88% | 1016.5 hPa | 0 mm | - | - | - |
| 1777864324 | 13.33° C | 87% | 1016.5 hPa | 0 mm | - | - | - |
| 1777864084 | 13.33° C | 87% | 1016.4 hPa | 0 mm | - | - | - |
* Rain latest hour (hover to see other rain measurements)
** Current wind speed in m/s (hover to see current wind gust speed)